createdAt,value
2023-04-12T00:00:13.782Z,7.11
2023-04-12T00:02:42.492Z,7.37
2023-04-12T00:05:11.743Z,7.46
2023-04-12T00:07:40.558Z,7.16
2023-04-12T00:10:10.371Z,8.03
2023-04-12T00:12:38.424Z,8.24
2023-04-12T00:15:08.336Z,8.05
2023-04-12T00:17:37.994Z,7.87
2023-04-12T00:20:12.114Z,7.81
2023-04-12T00:22:41.510Z,7.57
2023-04-12T00:25:10.384Z,7.50
2023-04-12T00:27:39.241Z,7.34
2023-04-12T00:30:09.464Z,7.15
2023-04-12T00:32:39.031Z,7.74
2023-04-12T00:35:08.156Z,7.71
2023-04-12T00:37:38.781Z,7.93
2023-04-12T00:40:10.014Z,7.84
2023-04-12T00:42:38.714Z,7.86
2023-04-12T00:45:08.357Z,7.88
2023-04-12T00:47:40.497Z,8.26
2023-04-12T00:50:10.022Z,8.22
2023-04-12T00:52:39.222Z,8.32
2023-04-12T00:55:09.439Z,8.01
2023-04-12T00:57:40.141Z,7.62
2023-04-12T01:00:11.992Z,7.39
2023-04-12T01:02:42.686Z,7.76
2023-04-12T01:05:14.916Z,7.71
2023-04-12T01:07:54.236Z,7.22
2023-04-12T01:10:33.300Z,6.99
2023-04-12T01:13:09.131Z,7.12
2023-04-12T01:15:42.561Z,6.60
2023-04-12T01:18:17.817Z,6.54
2023-04-12T01:20:54.942Z,6.79
2023-04-12T01:23:44.800Z,6.78
2023-04-12T01:26:34.493Z,6.65
2023-04-12T01:29:10.708Z,6.78
2023-04-12T01:31:42.043Z,6.87
2023-04-12T01:34:12.271Z,6.59
2023-04-12T01:36:42.240Z,6.63
2023-04-12T01:39:11.609Z,6.49
2023-04-12T01:41:45.386Z,6.31
2023-04-12T01:44:16.412Z,6.43
2023-04-12T01:46:46.857Z,6.48
2023-04-12T01:49:16.746Z,6.35
2023-04-12T01:51:52.252Z,6.18
2023-04-12T01:54:23.596Z,7.16
2023-04-12T01:56:59.001Z,6.65
2023-04-12T01:59:33.233Z,6.15
2023-04-12T02:02:01.294Z,6.35
2023-04-12T02:04:30.380Z,6.20
2023-04-12T02:06:58.874Z,6.55
2023-04-12T02:09:27.474Z,6.19
2023-04-12T02:11:56.509Z,6.26
2023-04-12T02:14:24.551Z,6.54
2023-04-12T02:16:54.968Z,6.48
2023-04-12T02:19:23.256Z,6.41
2023-04-12T02:21:52.265Z,6.44
2023-04-12T02:24:20.627Z,6.63
2023-04-12T02:26:49.807Z,6.39
2023-04-12T02:29:18.061Z,6.66
2023-04-12T02:31:48.573Z,6.89
2023-04-12T02:34:19.564Z,6.60
2023-04-12T02:36:53.171Z,7.24
2023-04-12T02:39:22.383Z,6.56
2023-04-12T02:41:52.707Z,6.80
2023-04-12T02:44:21.448Z,6.82
2023-04-12T02:47:05.878Z,6.47
2023-04-12T02:49:36.693Z,6.98
2023-04-12T02:52:06.171Z,6.41
2023-04-12T02:54:42.374Z,7.09
2023-04-12T02:57:16.794Z,6.63
2023-04-12T02:59:47.664Z,6.88
2023-04-12T03:02:28.289Z,6.97
2023-04-12T03:05:03.550Z,7.22
2023-04-12T03:07:42.132Z,7.33
2023-04-12T03:10:12.840Z,7.31
2023-04-12T03:12:53.077Z,7.63
2023-04-12T03:15:23.542Z,7.30
2023-04-12T03:17:53.757Z,7.55
2023-04-12T03:20:28.421Z,7.24
2023-04-12T03:23:08.861Z,6.98
2023-04-12T03:25:41.054Z,7.39
2023-04-12T03:28:32.375Z,7.42
2023-04-12T03:31:03.101Z,7.64
2023-04-12T03:33:51.659Z,7.63
2023-04-12T03:36:29.574Z,7.32
2023-04-12T03:39:06.029Z,7.22
2023-04-12T03:41:36.432Z,7.19
2023-04-12T03:44:06.604Z,7.60
2023-04-12T03:46:36.469Z,7.80
2023-04-12T03:49:09.163Z,7.04
2023-04-12T03:51:43.189Z,7.01
2023-04-12T03:54:13.025Z,6.78
2023-04-12T03:56:52.272Z,6.85
2023-04-12T03:59:26.224Z,6.84
2023-04-12T04:01:55.545Z,6.52
2023-04-12T04:04:25.311Z,6.99
2023-04-12T04:06:58.862Z,7.11
2023-04-12T04:09:29.447Z,6.89
2023-04-12T04:11:58.364Z,7.01
2023-04-12T04:14:27.841Z,7.60
2023-04-12T04:16:56.447Z,7.18
2023-04-12T04:19:24.579Z,7.42
2023-04-12T04:21:52.768Z,7.14
2023-04-12T04:24:22.527Z,6.92
2023-04-12T04:26:54.918Z,7.45
2023-04-12T04:29:27.175Z,7.71
2023-04-12T04:31:57.581Z,7.50
2023-04-12T04:34:26.591Z,7.30
2023-04-12T04:37:02.236Z,6.64
2023-04-12T04:39:31.902Z,6.25
2023-04-12T04:42:00.812Z,6.69
2023-04-12T04:44:37.352Z,6.82
2023-04-12T04:47:08.765Z,6.47
2023-04-12T04:49:37.322Z,6.83
2023-04-12T04:52:20.989Z,6.49
2023-04-12T04:54:52.001Z,6.57
2023-04-12T04:57:21.205Z,6.62
2023-04-12T04:59:49.544Z,6.71
2023-04-12T05:02:18.845Z,6.38
2023-04-12T05:04:46.840Z,6.44
2023-04-12T05:07:18.490Z,6.56
2023-04-12T05:09:48.428Z,6.77
2023-04-12T05:12:18.963Z,6.81
2023-04-12T05:14:51.976Z,6.62
2023-04-12T05:17:20.482Z,6.67
2023-04-12T05:19:48.620Z,6.61
2023-04-12T05:22:20.471Z,6.18
2023-04-12T05:24:48.719Z,6.32
2023-04-12T05:27:19.038Z,6.78
2023-04-12T05:29:49.017Z,6.46
2023-04-12T05:32:19.816Z,6.74
2023-04-12T05:34:48.134Z,6.27
2023-04-12T05:37:16.622Z,6.22
2023-04-12T05:39:44.686Z,6.33
2023-04-12T05:42:13.840Z,6.36
2023-04-12T05:44:46.515Z,6.52
2023-04-12T05:47:16.399Z,6.44
2023-04-12T05:49:44.537Z,6.98
2023-04-12T05:52:13.474Z,6.88
2023-04-12T05:54:41.854Z,6.74
2023-04-12T05:57:14.041Z,6.78
2023-04-12T05:59:42.301Z,6.64
2023-04-12T06:02:12.209Z,6.55
2023-04-12T06:04:50.059Z,6.38
2023-04-12T06:07:20.076Z,6.09
2023-04-12T06:09:49.855Z,6.72
2023-04-12T06:12:18.721Z,7.11
2023-04-12T06:14:47.785Z,6.09
2023-04-12T06:17:17.298Z,6.42
2023-04-12T06:19:45.618Z,6.76
2023-04-12T06:22:13.654Z,7.02
2023-04-12T06:24:42.738Z,6.39
2023-04-12T06:27:12.390Z,6.19
2023-04-12T06:29:40.495Z,6.76
2023-04-12T06:32:09.000Z,6.46
2023-04-12T06:34:38.470Z,6.88
2023-04-12T06:37:12.914Z,7.70
2023-04-12T06:39:41.022Z,6.41
2023-04-12T06:42:09.029Z,6.77
2023-04-12T06:44:40.908Z,7.17
2023-04-12T06:47:09.512Z,6.59
2023-04-12T06:49:39.440Z,6.31
2023-04-12T06:52:07.392Z,6.43
2023-04-12T06:54:37.722Z,6.65
2023-04-12T06:57:10.284Z,7.31
2023-04-12T06:59:38.446Z,7.62
2023-04-12T07:02:07.873Z,7.69
2023-04-12T07:04:36.236Z,7.09
2023-04-12T07:07:05.738Z,7.49
2023-04-12T07:09:33.972Z,7.79
2023-04-12T07:12:02.412Z,7.60
2023-04-12T07:14:30.854Z,7.55
2023-04-12T07:16:58.953Z,7.03
2023-04-12T07:19:26.964Z,6.73
2023-04-12T07:21:54.928Z,7.62
2023-04-12T07:24:24.433Z,7.32
2023-04-12T07:26:54.341Z,7.18
2023-04-12T07:29:22.366Z,6.91
2023-04-12T07:31:50.423Z,7.28
2023-04-12T07:34:18.603Z,7.74
2023-04-12T07:36:46.801Z,7.04
2023-04-12T07:39:14.952Z,7.14
2023-04-12T07:41:46.563Z,7.46
2023-04-12T07:44:14.560Z,7.25
2023-04-12T07:46:43.065Z,6.76
2023-04-12T07:49:11.612Z,7.53
2023-04-12T07:51:39.659Z,7.99
2023-04-12T07:54:07.759Z,7.86
2023-04-12T07:56:36.641Z,7.31
2023-04-12T07:59:06.120Z,7.94
2023-04-12T08:01:34.225Z,7.87
2023-04-12T08:04:02.798Z,7.49
2023-04-12T08:06:33.705Z,7.52
2023-04-12T08:09:02.336Z,7.02
2023-04-12T08:11:30.412Z,7.31
2023-04-12T08:13:58.735Z,7.28
2023-04-12T08:16:28.463Z,7.28
2023-04-12T08:18:56.526Z,7.45
2023-04-12T08:21:25.013Z,6.89
2023-04-12T08:23:52.966Z,7.66
2023-04-12T08:26:21.314Z,8.24
2023-04-12T08:28:49.475Z,7.36
2023-04-12T08:31:17.934Z,7.83
2023-04-12T08:33:47.348Z,8.21
2023-04-12T08:36:15.767Z,7.47
2023-04-12T08:38:46.116Z,7.89
2023-04-12T08:41:15.416Z,8.77
2023-04-12T08:43:47.471Z,8.57
2023-04-12T08:46:16.973Z,8.90
2023-04-12T08:48:47.794Z,9.35
2023-04-12T08:51:17.403Z,9.67
2023-04-12T08:53:45.760Z,8.80
2023-04-12T08:56:15.389Z,9.87
2023-04-12T08:58:48.993Z,9.77
2023-04-12T09:01:18.098Z,10.33
2023-04-12T09:03:47.787Z,9.89
2023-04-12T09:06:16.216Z,10.04
2023-04-12T09:08:54.767Z,10.61
2023-04-12T09:11:24.573Z,10.55
2023-04-12T09:13:53.143Z,10.37
2023-04-12T09:16:36.279Z,10.39
2023-04-12T09:19:06.199Z,11.39
2023-04-12T09:21:35.242Z,12.07
2023-04-12T09:24:04.684Z,12.42
2023-04-12T09:26:32.709Z,12.67
2023-04-12T09:29:01.089Z,12.47
2023-04-12T09:31:29.202Z,12.48
2023-04-12T09:34:09.646Z,11.55
2023-04-12T09:36:41.144Z,10.81
2023-04-12T09:39:09.757Z,11.04
2023-04-12T09:41:37.747Z,10.87
2023-04-12T09:44:05.827Z,11.94
2023-04-12T09:46:34.887Z,12.01
2023-04-12T09:49:03.732Z,11.97
2023-04-12T09:51:36.605Z,12.58
2023-04-12T09:54:06.893Z,12.75
2023-04-12T09:56:36.753Z,13.11
2023-04-12T09:59:07.158Z,13.46
2023-04-12T10:01:36.932Z,13.66
2023-04-12T10:04:07.464Z,13.91
2023-04-12T10:06:37.507Z,13.10
2023-04-12T10:09:06.816Z,10.85
2023-04-12T10:11:35.385Z,11.84
2023-04-12T10:14:04.550Z,11.94
2023-04-12T10:16:35.317Z,11.56
2023-04-12T10:19:04.906Z,11.20
2023-04-12T10:21:33.129Z,11.90
2023-04-12T10:24:02.956Z,11.71
2023-04-12T10:26:31.644Z,11.55
2023-04-12T10:29:24.776Z,11.37
2023-04-12T10:31:53.055Z,12.33
2023-04-12T10:34:25.976Z,13.03
2023-04-12T10:36:56.180Z,11.81
2023-04-12T10:39:40.970Z,11.77
2023-04-12T10:42:21.577Z,12.01
2023-04-12T10:44:50.399Z,12.25
2023-04-12T10:47:18.585Z,12.37
2023-04-12T10:50:20.009Z,12.72
2023-04-12T10:53:25.893Z,12.38
2023-04-12T10:55:55.536Z,12.17
2023-04-12T10:59:01.785Z,13.43
2023-04-12T11:01:36.739Z,12.97
2023-04-12T11:04:15.258Z,11.66
2023-04-12T11:06:52.493Z,11.27
2023-04-12T11:09:42.029Z,12.28
2023-04-12T11:12:16.756Z,12.21
2023-04-12T11:14:46.861Z,12.39
2023-04-12T11:17:26.284Z,12.16
2023-04-12T11:19:57.574Z,10.94
2023-04-12T11:22:28.907Z,11.22
2023-04-12T11:24:58.820Z,11.70
2023-04-12T11:27:32.017Z,11.49
2023-04-12T11:30:02.007Z,11.66
2023-04-12T11:32:32.325Z,12.00
2023-04-12T11:35:00.497Z,12.01
2023-04-12T11:37:33.290Z,12.28
2023-04-12T11:40:01.509Z,12.15
2023-04-12T11:42:30.987Z,12.17
2023-04-12T11:45:04.037Z,11.81
2023-04-12T11:47:35.006Z,11.74
2023-04-12T11:50:03.139Z,11.62
2023-04-12T11:52:33.804Z,13.05
2023-04-12T11:55:05.216Z,13.58
2023-04-12T11:57:35.420Z,13.79
2023-04-12T12:00:06.752Z,13.26
2023-04-12T12:02:49.299Z,12.75
2023-04-12T12:05:37.179Z,13.84
2023-04-12T12:08:08.006Z,12.45
2023-04-12T12:10:49.162Z,12.80
2023-04-12T12:13:27.187Z,13.65
2023-04-12T12:15:55.420Z,14.41
2023-04-12T12:18:28.988Z,14.02
2023-04-12T12:20:57.128Z,12.86
2023-04-12T12:23:30.506Z,12.66
2023-04-12T12:26:14.297Z,13.20
2023-04-12T12:28:50.844Z,13.29
2023-04-12T12:31:21.204Z,13.76
2023-04-12T12:33:49.808Z,14.39
2023-04-12T12:36:20.968Z,14.68
2023-04-12T12:38:51.451Z,14.83
2023-04-12T12:41:21.625Z,14.86
2023-04-12T12:43:53.202Z,15.62
2023-04-12T12:46:21.877Z,15.80
2023-04-12T12:48:50.053Z,16.34
2023-04-12T12:51:19.938Z,14.75
2023-04-12T12:53:48.272Z,15.60
2023-04-12T12:56:17.230Z,15.60
2023-04-12T12:58:45.491Z,14.75
2023-04-12T13:01:14.937Z,15.63
2023-04-12T13:03:43.061Z,15.77
2023-04-12T13:06:11.505Z,15.84
2023-04-12T13:08:39.552Z,15.29
2023-04-12T13:11:08.451Z,16.32
2023-04-12T13:13:36.571Z,16.10
2023-04-12T13:16:05.022Z,16.18
2023-04-12T13:18:34.466Z,16.27
2023-04-12T13:21:02.650Z,15.90
2023-04-12T13:23:30.864Z,16.44
2023-04-12T13:25:59.074Z,16.76
2023-04-12T13:28:27.079Z,16.71
2023-04-12T13:30:55.106Z,16.65
2023-04-12T13:33:23.303Z,16.76
2023-04-12T13:35:52.768Z,16.15
2023-04-12T13:38:21.077Z,16.41
2023-04-12T13:40:49.161Z,16.34
2023-04-12T13:43:17.146Z,16.55
2023-04-12T13:45:45.185Z,16.44
2023-04-12T13:48:13.281Z,16.18
2023-04-12T13:50:41.397Z,16.45
2023-04-12T13:53:10.918Z,16.56
2023-04-12T13:55:38.921Z,16.55
2023-04-12T13:58:07.009Z,16.61
2023-04-12T14:00:35.370Z,16.69
2023-04-12T14:03:03.760Z,16.71
2023-04-12T14:05:32.022Z,16.77
2023-04-12T14:08:00.094Z,16.55
2023-04-12T14:10:29.489Z,16.59
2023-04-12T14:12:57.544Z,16.66
2023-04-12T14:15:25.936Z,16.54
2023-04-12T14:17:54.196Z,16.41
2023-04-12T14:20:23.885Z,16.31
2023-04-12T14:22:52.184Z,16.19
2023-04-12T14:25:21.487Z,16.39
2023-04-12T14:27:50.927Z,16.31
2023-04-12T14:30:19.251Z,16.21
2023-04-12T14:32:48.087Z,16.20
2023-04-12T14:35:16.851Z,16.13
2023-04-12T14:37:45.739Z,16.18
2023-04-12T14:40:14.905Z,15.95
2023-04-12T14:42:43.253Z,15.84
2023-04-12T14:45:13.208Z,16.06
2023-04-12T14:47:41.580Z,15.93
2023-04-12T14:50:10.198Z,15.88
2023-04-12T14:52:38.263Z,15.82
2023-04-12T14:55:07.445Z,15.74
2023-04-12T14:57:35.864Z,15.89
2023-04-12T15:00:04.612Z,16.02
2023-04-12T15:02:34.215Z,16.07
2023-04-12T15:05:07.426Z,16.12
2023-04-12T15:07:36.006Z,16.12
2023-04-12T15:10:04.951Z,16.13
2023-04-12T15:12:33.592Z,16.45
2023-04-12T15:15:05.368Z,16.60
2023-04-12T15:17:35.719Z,16.50
2023-04-12T15:20:09.349Z,16.69
2023-04-12T15:22:37.722Z,16.81
2023-04-12T15:25:06.806Z,17.30
2023-04-12T15:27:34.968Z,17.31
2023-04-12T15:30:04.017Z,17.96
2023-04-12T15:32:36.305Z,18.50
2023-04-12T15:35:22.756Z,18.52
2023-04-12T15:37:55.155Z,19.02
2023-04-12T15:40:24.516Z,19.21
2023-04-12T15:42:52.700Z,19.05
2023-04-12T15:45:20.773Z,19.22
2023-04-12T15:47:48.925Z,19.52
2023-04-12T15:50:19.135Z,18.53
2023-04-12T15:52:47.598Z,19.22
2023-04-12T15:55:17.058Z,19.60
2023-04-12T15:57:45.296Z,20.04
2023-04-12T16:00:21.070Z,20.33
2023-04-12T16:02:53.713Z,20.16
2023-04-12T16:05:24.621Z,19.74
2023-04-12T16:07:52.680Z,19.81
2023-04-12T16:10:22.505Z,19.98
2023-04-12T16:12:54.041Z,20.21
2023-04-12T16:15:22.489Z,19.88
2023-04-12T16:17:53.276Z,20.06
2023-04-12T16:20:23.476Z,19.68
2023-04-12T16:22:55.114Z,19.70
2023-04-12T16:25:24.235Z,19.71
2023-04-12T16:27:52.354Z,19.76
2023-04-12T16:30:20.790Z,19.95
2023-04-12T16:32:49.336Z,19.97
2023-04-12T16:35:18.109Z,19.93
2023-04-12T16:37:48.193Z,19.86
2023-04-12T16:40:17.316Z,20.02
2023-04-12T16:42:46.035Z,19.86
2023-04-12T16:45:15.319Z,19.65
2023-04-12T16:47:43.570Z,19.71
2023-04-12T16:50:13.566Z,19.52
2023-04-12T16:52:42.064Z,19.47
2023-04-12T16:55:12.442Z,19.14
2023-04-12T16:57:41.717Z,19.04
2023-04-12T17:00:19.580Z,18.94
2023-04-12T17:02:49.957Z,19.16
2023-04-12T17:05:19.948Z,18.37
2023-04-12T17:07:49.909Z,18.26
2023-04-12T17:10:21.107Z,18.14
2023-04-12T17:12:50.638Z,17.99
2023-04-12T17:15:21.003Z,17.85
2023-04-12T17:17:50.393Z,17.59
2023-04-12T17:20:19.971Z,17.31
2023-04-12T17:22:48.456Z,17.39
2023-04-12T17:25:18.726Z,17.30
2023-04-12T17:27:49.375Z,16.97
2023-04-12T17:30:17.879Z,16.88
2023-04-12T17:32:48.384Z,16.73
2023-04-12T17:35:17.905Z,16.33
2023-04-12T17:37:46.400Z,15.95
2023-04-12T17:40:15.439Z,15.76
2023-04-12T17:42:45.011Z,15.65
2023-04-12T17:45:14.822Z,15.54
2023-04-12T17:47:43.933Z,15.46
2023-04-12T17:50:13.340Z,15.15
2023-04-12T17:52:42.447Z,15.23
2023-04-12T17:55:12.510Z,15.00
2023-04-12T17:57:40.816Z,14.94
2023-04-12T18:00:11.940Z,14.81
2023-04-12T18:02:44.724Z,14.62
2023-04-12T18:05:13.414Z,14.46
2023-04-12T18:07:42.525Z,14.36
2023-04-12T18:10:12.625Z,14.25
2023-04-12T18:12:41.048Z,14.23
2023-04-12T18:15:10.367Z,14.00
2023-04-12T18:17:39.754Z,13.90
2023-04-12T18:20:11.539Z,13.87
2023-04-12T18:22:40.004Z,13.83
2023-04-12T18:25:09.030Z,13.70
2023-04-12T18:27:37.052Z,13.59
2023-04-12T18:30:05.806Z,13.46
2023-04-12T18:32:33.841Z,13.43
2023-04-12T18:35:02.099Z,13.24
2023-04-12T18:37:31.935Z,13.08
2023-04-12T18:40:00.512Z,12.97
2023-04-12T18:42:28.543Z,12.99
2023-04-12T18:44:58.281Z,12.86
2023-04-12T18:47:27.282Z,12.84
2023-04-12T18:49:56.518Z,12.80
2023-04-12T18:52:24.683Z,12.71
2023-04-12T18:54:54.023Z,12.71
2023-04-12T18:57:23.134Z,12.60
2023-04-12T18:59:51.502Z,12.51
2023-04-12T19:02:19.829Z,12.51
2023-04-12T19:04:48.358Z,12.41
2023-04-12T19:07:16.370Z,12.24
2023-04-12T19:09:44.379Z,12.22
2023-04-12T19:12:13.787Z,12.19
2023-04-12T19:14:41.841Z,12.09
2023-04-12T19:17:10.533Z,12.06
2023-04-12T19:19:38.648Z,12.01
2023-04-12T19:22:06.806Z,11.94
2023-04-12T19:24:35.059Z,11.90
2023-04-12T19:27:03.658Z,11.80
2023-04-12T19:29:33.084Z,11.78
2023-04-12T19:32:02.262Z,11.69
2023-04-12T19:34:30.487Z,11.59
2023-04-12T19:36:58.855Z,11.56
2023-04-12T19:39:27.005Z,11.51
2023-04-12T19:41:55.018Z,11.47
2023-04-12T19:44:23.326Z,11.43
2023-04-12T19:46:52.948Z,11.35
2023-04-12T19:49:22.178Z,11.29
2023-04-12T19:51:50.832Z,11.20
2023-04-12T19:54:23.402Z,11.13
2023-04-12T19:56:52.640Z,11.03
2023-04-12T19:59:21.053Z,11.01
2023-04-12T20:01:49.173Z,11.01
2023-04-12T20:04:20.263Z,10.96
2023-04-12T20:06:50.471Z,10.91
2023-04-12T20:09:18.722Z,10.89
2023-04-12T20:11:46.864Z,10.86
2023-04-12T20:14:15.018Z,10.85
2023-04-12T20:16:45.360Z,10.82
2023-04-12T20:19:13.537Z,10.74
2023-04-12T20:21:47.496Z,10.71
2023-04-12T20:24:15.833Z,10.63
2023-04-12T20:26:46.572Z,10.63
2023-04-12T20:29:15.097Z,10.62
2023-04-12T20:31:43.402Z,10.60
2023-04-12T20:34:11.451Z,10.54
2023-04-12T20:36:39.485Z,10.50
2023-04-12T20:39:08.854Z,10.49
2023-04-12T20:41:38.243Z,10.37
2023-04-12T20:44:06.572Z,10.33
2023-04-12T20:46:36.925Z,10.35
2023-04-12T20:49:06.779Z,10.26
2023-04-12T20:51:34.854Z,10.25
2023-04-12T20:54:03.306Z,10.22
2023-04-12T20:56:32.675Z,10.18
2023-04-12T20:59:02.457Z,10.21
2023-04-12T21:01:30.629Z,10.13
2023-04-12T21:03:59.814Z,10.14
2023-04-12T21:06:28.390Z,10.09
2023-04-12T21:08:56.764Z,10.09
2023-04-12T21:11:25.052Z,10.02
2023-04-12T21:13:54.398Z,9.98
2023-04-12T21:16:24.999Z,10.02
2023-04-12T21:18:53.433Z,9.99
2023-04-12T21:21:21.635Z,9.76
2023-04-12T21:23:51.463Z,9.89
2023-04-12T21:26:20.912Z,9.89
2023-04-12T21:28:48.908Z,9.87
2023-04-12T21:31:18.838Z,9.82
2023-04-12T21:33:46.873Z,9.77
2023-04-12T21:36:15.150Z,9.71
2023-04-12T21:38:43.337Z,9.70
2023-04-12T21:41:13.077Z,9.67
2023-04-12T21:43:41.630Z,9.58
2023-04-12T21:46:10.024Z,9.54
2023-04-12T21:48:39.430Z,9.37
2023-04-12T21:51:08.320Z,9.31
2023-04-12T21:53:36.362Z,9.32
2023-04-12T21:56:04.433Z,9.25
2023-04-12T21:58:34.189Z,9.35
2023-04-12T22:01:02.669Z,9.27
2023-04-12T22:03:30.988Z,9.25
2023-04-12T22:06:04.726Z,9.29
2023-04-12T22:08:34.252Z,9.25
2023-04-12T22:11:02.535Z,9.28
2023-04-12T22:13:30.895Z,9.29
2023-04-12T22:16:00.813Z,9.28
2023-04-12T22:18:29.690Z,9.25
2023-04-12T22:20:58.058Z,9.23
2023-04-12T22:23:27.501Z,9.19
2023-04-12T22:25:58.649Z,9.20
2023-04-12T22:28:26.761Z,9.19
2023-04-12T22:30:57.175Z,9.19
2023-04-12T22:33:25.356Z,9.13
2023-04-12T22:35:53.428Z,9.02
2023-04-12T22:38:21.492Z,8.97
2023-04-12T22:40:51.158Z,9.00
2023-04-12T22:43:21.096Z,8.97
2023-04-12T22:45:49.398Z,9.02
2023-04-12T22:48:17.468Z,9.04
2023-04-12T22:50:45.850Z,8.99
2023-04-12T22:53:14.110Z,9.01
2023-04-12T22:55:42.325Z,8.96
2023-04-12T22:58:11.803Z,8.96
2023-04-12T23:00:39.881Z,8.94
2023-04-12T23:03:10.902Z,8.91
2023-04-12T23:05:41.482Z,8.90
2023-04-12T23:08:10.441Z,8.88
2023-04-12T23:10:38.825Z,8.79
2023-04-12T23:13:07.749Z,8.82
2023-04-12T23:15:37.629Z,8.83
2023-04-12T23:18:05.874Z,8.82
2023-04-12T23:20:35.855Z,8.79
2023-04-12T23:23:04.033Z,8.78
2023-04-12T23:25:39.465Z,8.76
2023-04-12T23:28:12.978Z,8.73
2023-04-12T23:30:47.786Z,8.71
2023-04-12T23:33:18.257Z,8.69
2023-04-12T23:35:47.488Z,8.70
2023-04-12T23:38:23.227Z,8.61
2023-04-12T23:40:53.902Z,8.55
2023-04-12T23:43:22.604Z,8.60
2023-04-12T23:45:53.091Z,8.44
2023-04-12T23:48:21.769Z,8.37
2023-04-12T23:50:50.108Z,8.24
2023-04-12T23:53:19.735Z,8.35
2023-04-12T23:55:49.585Z,8.32
2023-04-12T23:58:18.253Z,8.29
